Gresham, Oregon
Current Conditions -  °F | °C
As of 8:20 AM on Monday 26 Jan 2015 (Local Time) from KTTD Reporting Station
Moderate Fog Moderate Fog  
Wind Chill: 36°   Ceiling: 300
Heat Index: 39°   Visibility: 0.25mi
Dew Point: 38°   Wind: 5mph
Humidity: 96%   Direction: 250°WSW
Pressure: 30.04"   Gusts: NA
Location:  45.51°N, 122.43°W
Report Text: KTTD 261620Z 25004KT 1/4SM FG OVC003 04/03 A3004 RMK AO2 T00390033
Loading
Personal Weather Stations






























Interactive Weather Map New forecast layout! Learn more

10-Day Weather Forecast

Advertisements
Track Severe Weather on mobile